createdAt,value
2022-10-22T00:02:14.937Z,17.58
2022-10-22T00:04:41.233Z,17.58
2022-10-22T00:07:08.135Z,17.59
2022-10-22T00:09:34.476Z,17.59
2022-10-22T00:12:00.759Z,17.57
2022-10-22T00:14:27.039Z,17.58
2022-10-22T00:16:53.501Z,17.58
2022-10-22T00:19:19.733Z,17.58
2022-10-22T00:21:46.003Z,17.56
2022-10-22T00:24:12.255Z,17.56
2022-10-22T00:26:38.589Z,17.56
2022-10-22T00:29:04.853Z,17.58
2022-10-22T00:31:31.673Z,17.57
2022-10-22T00:33:57.995Z,17.57
2022-10-22T00:36:24.369Z,17.56
2022-10-22T00:38:50.896Z,17.56
2022-10-22T00:41:17.256Z,17.58
2022-10-22T00:43:43.731Z,17.57
2022-10-22T00:46:10.071Z,17.58
2022-10-22T00:48:36.342Z,17.55
2022-10-22T00:51:02.575Z,17.55
2022-10-22T00:53:28.852Z,17.55
2022-10-22T00:55:55.225Z,17.55
2022-10-22T00:58:21.928Z,17.56
2022-10-22T01:00:48.312Z,17.55
2022-10-22T01:03:16.266Z,17.55
2022-10-22T01:05:42.756Z,17.55
2022-10-22T01:08:09.329Z,17.55
2022-10-22T01:10:35.653Z,17.55
2022-10-22T01:13:02.507Z,17.55
2022-10-22T01:15:28.756Z,17.55
2022-10-22T01:17:55.135Z,17.54
2022-10-22T01:20:21.489Z,17.55
2022-10-22T01:22:47.845Z,17.54
2022-10-22T01:25:14.413Z,17.55
2022-10-22T01:27:40.999Z,17.55
2022-10-22T01:30:07.496Z,17.54
2022-10-22T01:32:33.778Z,17.55
2022-10-22T01:34:59.989Z,17.54
2022-10-22T01:37:26.293Z,17.55
2022-10-22T01:39:52.669Z,17.54
2022-10-22T01:42:19.243Z,17.53
2022-10-22T01:44:45.557Z,17.53
2022-10-22T01:47:11.984Z,17.52
2022-10-22T01:49:38.232Z,17.53
2022-10-22T01:52:04.817Z,17.54
2022-10-22T01:54:31.370Z,17.53
2022-10-22T01:56:57.670Z,17.53
2022-10-22T01:59:23.949Z,17.53
2022-10-22T02:01:50.216Z,17.52
2022-10-22T02:04:16.582Z,17.53
2022-10-22T02:06:42.871Z,17.53
2022-10-22T02:09:09.280Z,17.51
2022-10-22T02:11:35.557Z,17.53
2022-10-22T02:14:01.807Z,17.52
2022-10-22T02:16:28.177Z,17.52
2022-10-22T02:18:54.533Z,17.52
2022-10-22T02:21:20.969Z,17.52
2022-10-22T02:23:47.247Z,17.52
2022-10-22T02:26:13.529Z,17.51
2022-10-22T02:28:40.119Z,17.50
2022-10-22T02:31:06.441Z,17.51
2022-10-22T02:33:32.733Z,17.51
2022-10-22T02:35:59.124Z,17.52
2022-10-22T02:38:25.589Z,17.51
2022-10-22T02:40:52.236Z,17.51
2022-10-22T02:43:18.553Z,17.52
2022-10-22T02:45:44.868Z,17.49
2022-10-22T02:48:11.314Z,17.50
2022-10-22T02:50:37.773Z,17.49
2022-10-22T02:53:04.340Z,17.51
2022-10-22T02:55:30.639Z,17.51
2022-10-22T02:57:56.929Z,17.51
2022-10-22T03:00:23.255Z,17.50
2022-10-22T03:02:49.518Z,17.49
2022-10-22T03:05:15.961Z,17.50
2022-10-22T03:07:42.715Z,17.50
2022-10-22T03:10:09.397Z,17.50
2022-10-22T03:12:35.629Z,17.49
2022-10-22T03:15:01.904Z,17.50
2022-10-22T03:17:28.275Z,17.49
2022-10-22T03:19:54.549Z,17.50
2022-10-22T03:22:21.315Z,17.50
2022-10-22T03:24:47.567Z,17.50
2022-10-22T03:27:13.804Z,17.50
2022-10-22T03:29:40.352Z,17.49
2022-10-22T03:32:06.615Z,17.48
2022-10-22T03:34:33.001Z,17.49
2022-10-22T03:36:59.496Z,17.49
2022-10-22T03:39:25.868Z,17.48
2022-10-22T03:41:52.140Z,17.48
2022-10-22T03:44:18.460Z,17.48
2022-10-22T03:46:44.833Z,17.49
2022-10-22T03:49:11.156Z,17.48
2022-10-22T03:51:37.710Z,17.48
2022-10-22T03:54:03.967Z,17.47
2022-10-22T03:56:30.237Z,17.48
2022-10-22T03:58:56.477Z,17.48
2022-10-22T04:01:22.815Z,17.47
2022-10-22T04:03:49.114Z,17.48
2022-10-22T04:06:15.633Z,17.48
2022-10-22T04:08:41.952Z,17.48
2022-10-22T04:11:08.352Z,17.48
2022-10-22T04:13:34.642Z,17.47
2022-10-22T04:16:00.889Z,17.48
2022-10-22T04:18:27.290Z,17.46
2022-10-22T04:20:53.674Z,17.48
2022-10-22T04:23:19.971Z,17.47
2022-10-22T04:25:46.227Z,17.46
2022-10-22T04:28:12.719Z,17.47
2022-10-22T04:30:38.956Z,17.47
2022-10-22T04:33:05.279Z,17.47
2022-10-22T04:35:31.535Z,17.47
2022-10-22T04:37:57.817Z,17.47
2022-10-22T04:40:24.065Z,17.47
2022-10-22T04:42:50.349Z,17.46
2022-10-22T04:45:16.784Z,17.46
2022-10-22T04:47:43.259Z,17.47
2022-10-22T04:50:09.717Z,17.45
2022-10-22T04:52:36.687Z,17.47
2022-10-22T04:55:03.005Z,17.47
2022-10-22T04:57:29.630Z,17.46
2022-10-22T04:59:56.009Z,17.47
2022-10-22T05:02:22.293Z,17.45
2022-10-22T05:04:48.580Z,17.47
2022-10-22T05:07:15.014Z,17.44
2022-10-22T05:09:41.282Z,17.46
2022-10-22T05:12:08.182Z,17.45
2022-10-22T05:14:34.561Z,17.45
2022-10-22T05:17:00.818Z,17.45
2022-10-22T05:19:27.151Z,17.45
2022-10-22T05:21:53.459Z,17.46
2022-10-22T05:24:19.680Z,17.46
2022-10-22T05:26:45.918Z,17.45
2022-10-22T05:29:12.570Z,17.44
2022-10-22T05:31:38.958Z,17.44
2022-10-22T05:34:05.221Z,17.43
2022-10-22T05:36:31.661Z,17.45
2022-10-22T05:38:58.198Z,17.45
2022-10-22T05:41:24.509Z,17.44
2022-10-22T05:43:50.905Z,17.44
2022-10-22T05:46:21.392Z,17.44
2022-10-22T05:48:48.497Z,17.45
2022-10-22T05:51:14.793Z,17.43
2022-10-22T05:53:41.193Z,17.43
2022-10-22T05:56:07.705Z,17.44
2022-10-22T05:58:34.069Z,17.45
2022-10-22T06:01:00.550Z,17.43
2022-10-22T06:03:26.984Z,17.43
2022-10-22T06:05:53.593Z,17.43
2022-10-22T06:08:20.248Z,17.44
2022-10-22T06:10:46.893Z,17.44
2022-10-22T06:13:13.184Z,17.43
2022-10-22T06:15:39.639Z,17.43
2022-10-22T06:18:05.981Z,17.43
2022-10-22T06:20:32.180Z,17.42
2022-10-22T06:22:58.494Z,17.42
2022-10-22T06:25:25.025Z,17.43
2022-10-22T06:27:51.304Z,17.42
2022-10-22T06:30:17.705Z,17.42
2022-10-22T06:32:44.167Z,17.42
2022-10-22T06:35:10.432Z,17.44
2022-10-22T06:37:36.938Z,17.42
2022-10-22T06:40:03.410Z,17.42
2022-10-22T06:42:29.896Z,17.43
2022-10-22T06:44:56.398Z,17.42
2022-10-22T06:47:22.709Z,17.42
2022-10-22T06:49:49.000Z,17.41
2022-10-22T06:52:15.356Z,17.42
2022-10-22T06:54:41.677Z,17.41
2022-10-22T06:57:07.924Z,17.42
2022-10-22T06:59:34.570Z,17.43
2022-10-22T07:02:00.806Z,17.42
2022-10-22T07:04:27.618Z,17.42
2022-10-22T07:06:54.044Z,17.42
2022-10-22T07:09:20.361Z,17.41
2022-10-22T07:11:46.685Z,17.41
2022-10-22T07:14:13.229Z,17.42
2022-10-22T07:16:39.608Z,17.42
2022-10-22T07:19:05.908Z,17.42
2022-10-22T07:21:32.319Z,17.42
2022-10-22T07:23:58.583Z,17.42
2022-10-22T07:26:25.120Z,17.42
2022-10-22T07:28:51.433Z,17.41
2022-10-22T07:31:17.701Z,17.42
2022-10-22T07:33:43.920Z,17.42
2022-10-22T07:36:10.324Z,17.42
2022-10-22T07:38:36.565Z,17.41
2022-10-22T07:41:02.890Z,17.41
2022-10-22T07:43:29.455Z,17.41
2022-10-22T07:45:55.785Z,17.41
2022-10-22T07:48:22.035Z,17.40
2022-10-22T07:50:48.374Z,17.41
2022-10-22T07:53:14.652Z,17.42
2022-10-22T07:55:40.961Z,17.41
2022-10-22T07:58:07.218Z,17.42
2022-10-22T08:00:33.548Z,17.40
2022-10-22T08:02:59.832Z,17.41
2022-10-22T08:05:26.072Z,17.41
2022-10-22T08:07:52.554Z,17.41
2022-10-22T08:10:18.854Z,17.39
2022-10-22T08:12:45.549Z,17.41
2022-10-22T08:15:11.908Z,17.41
2022-10-22T08:17:38.776Z,17.42
2022-10-22T08:20:05.305Z,17.40
2022-10-22T08:22:31.595Z,17.41
2022-10-22T08:24:57.962Z,17.40
2022-10-22T08:27:24.212Z,17.40
2022-10-22T08:29:50.642Z,17.40
2022-10-22T08:32:17.024Z,17.39
2022-10-22T08:34:43.402Z,17.38
2022-10-22T08:37:09.760Z,17.38
2022-10-22T08:39:36.179Z,17.37
2022-10-22T08:42:02.422Z,17.36
2022-10-22T08:44:28.707Z,17.37
2022-10-22T08:46:54.973Z,17.38
2022-10-22T08:49:21.399Z,17.37
2022-10-22T08:51:47.860Z,17.37
2022-10-22T08:54:14.276Z,17.36
2022-10-22T08:56:40.685Z,17.37
2022-10-22T08:59:07.238Z,17.36
2022-10-22T09:01:33.666Z,17.37
2022-10-22T09:03:59.994Z,17.36
2022-10-22T09:06:26.418Z,17.37
2022-10-22T09:08:52.810Z,17.37
2022-10-22T09:11:19.137Z,17.37
2022-10-22T09:13:45.583Z,17.39
2022-10-22T09:16:12.004Z,17.39
2022-10-22T09:18:38.499Z,17.37
2022-10-22T09:21:04.967Z,17.38
2022-10-22T09:23:31.352Z,17.39
2022-10-22T09:25:57.580Z,17.37
2022-10-22T09:28:23.946Z,17.37
2022-10-22T09:30:50.251Z,17.37
2022-10-22T09:33:18.203Z,17.37
2022-10-22T09:35:46.695Z,17.38
2022-10-22T09:38:13.365Z,17.40
2022-10-22T09:40:39.625Z,17.39
2022-10-22T09:43:05.897Z,17.38
2022-10-22T09:45:32.113Z,17.36
2022-10-22T09:48:01.993Z,17.39
2022-10-22T09:50:28.952Z,17.37
2022-10-22T09:52:55.404Z,17.37
2022-10-22T09:55:21.775Z,17.39
2022-10-22T09:57:48.702Z,17.37
2022-10-22T10:00:15.112Z,17.37
2022-10-22T10:02:41.929Z,17.38
2022-10-22T10:05:08.353Z,17.40
2022-10-22T10:07:34.747Z,17.40
2022-10-22T10:10:01.033Z,17.40
2022-10-22T10:12:27.446Z,17.37
2022-10-22T10:14:53.776Z,17.38
2022-10-22T10:17:20.057Z,17.40
2022-10-22T10:19:46.436Z,17.39
2022-10-22T10:22:12.739Z,17.41
2022-10-22T10:24:39.196Z,17.38
2022-10-22T10:27:05.623Z,17.38
2022-10-22T10:29:32.062Z,17.37
2022-10-22T10:31:58.920Z,17.39
2022-10-22T10:34:25.268Z,17.42
2022-10-22T10:36:51.647Z,17.44
2022-10-22T10:39:17.883Z,17.49
2022-10-22T10:41:44.261Z,17.46
2022-10-22T10:44:10.669Z,17.46
2022-10-22T10:46:37.306Z,17.48
2022-10-22T10:49:03.747Z,17.46
2022-10-22T10:51:30.592Z,17.52
2022-10-22T10:53:57.200Z,17.57
2022-10-22T10:56:23.568Z,17.65
2022-10-22T10:58:50.234Z,17.80
2022-10-22T11:01:16.468Z,18.00
2022-10-22T11:03:42.802Z,18.17
2022-10-22T11:06:09.202Z,18.37
2022-10-22T11:08:36.073Z,18.54
2022-10-22T11:11:02.625Z,18.70
2022-10-22T11:13:28.936Z,18.79
2022-10-22T11:15:55.295Z,18.83
2022-10-22T11:18:21.989Z,18.90
2022-10-22T11:20:48.430Z,18.93
2022-10-22T11:23:19.882Z,18.96
2022-10-22T11:25:47.315Z,19.00
2022-10-22T11:30:45.302Z,19.04
2022-10-22T11:33:11.753Z,19.03
2022-10-22T11:35:38.362Z,18.98
2022-10-22T11:38:04.660Z,19.01
2022-10-22T11:40:30.971Z,19.08
2022-10-22T11:42:57.261Z,19.13
2022-10-22T11:45:23.579Z,19.18
2022-10-22T11:47:50.227Z,19.21
2022-10-22T11:50:16.446Z,19.16
2022-10-22T11:52:43.085Z,19.15
2022-10-22T11:55:09.426Z,19.14
2022-10-22T11:57:37.129Z,19.11
2022-10-22T12:00:03.986Z,19.10
2022-10-22T12:02:30.486Z,19.11
2022-10-22T12:04:56.805Z,19.09
2022-10-22T12:07:23.057Z,19.08
2022-10-22T12:09:49.492Z,19.10
2022-10-22T12:12:15.920Z,19.16
2022-10-22T12:14:42.203Z,19.22
2022-10-22T12:17:08.621Z,19.28
2022-10-22T12:19:34.900Z,19.33
2022-10-22T12:22:01.170Z,19.38
2022-10-22T12:24:27.506Z,19.33
2022-10-22T12:26:53.856Z,19.40
2022-10-22T12:29:20.242Z,19.41
2022-10-22T12:31:46.555Z,19.46
2022-10-22T12:34:13.185Z,19.47
2022-10-22T12:36:39.604Z,19.49
2022-10-22T12:39:05.799Z,19.52
2022-10-22T12:41:32.067Z,19.46
2022-10-22T12:43:58.369Z,19.41
2022-10-22T12:46:24.866Z,19.49
2022-10-22T12:48:51.185Z,19.54
2022-10-22T12:51:17.524Z,19.61
2022-10-22T12:53:44.478Z,19.69
2022-10-22T12:56:11.093Z,19.76
2022-10-22T12:58:37.372Z,19.80
2022-10-22T13:01:03.765Z,19.87
2022-10-22T13:03:30.222Z,19.92
2022-10-22T13:05:56.446Z,19.94
2022-10-22T13:08:22.837Z,19.98
2022-10-22T13:10:49.367Z,20.02
2022-10-22T13:13:16.492Z,20.05
2022-10-22T13:15:42.950Z,20.06
2022-10-22T13:18:09.309Z,20.10
2022-10-22T13:20:36.029Z,20.14
2022-10-22T13:23:02.351Z,20.10
2022-10-22T13:25:28.926Z,20.05
2022-10-22T13:27:55.346Z,20.06
2022-10-22T13:30:21.603Z,20.11
2022-10-22T13:32:47.828Z,20.12
2022-10-22T13:35:14.209Z,20.18
2022-10-22T13:37:40.920Z,20.17
2022-10-22T13:40:10.915Z,20.25
2022-10-22T13:42:37.552Z,20.31
2022-10-22T13:45:03.863Z,20.38
2022-10-22T13:47:30.172Z,20.46
2022-10-22T13:52:28.056Z,20.52
2022-10-22T13:54:54.293Z,20.49
2022-10-22T13:57:20.606Z,20.55
2022-10-22T13:59:47.027Z,20.60
2022-10-22T14:02:13.515Z,20.69
2022-10-22T14:04:39.932Z,20.74
2022-10-22T14:07:06.288Z,20.80
2022-10-22T14:09:32.569Z,20.82
2022-10-22T14:11:58.849Z,20.88
2022-10-22T14:14:25.205Z,20.90
2022-10-22T14:16:51.597Z,20.92
2022-10-22T14:19:17.924Z,20.94
2022-10-22T14:21:44.161Z,20.95
2022-10-22T14:24:13.014Z,20.96
2022-10-22T14:26:40.279Z,21.00
2022-10-22T14:29:10.984Z,21.02
2022-10-22T14:34:07.335Z,21.06
2022-10-22T14:36:33.786Z,21.05
2022-10-22T14:39:00.327Z,21.10
2022-10-22T14:41:26.633Z,21.10
2022-10-22T14:43:53.114Z,21.15
2022-10-22T14:46:19.705Z,21.18
2022-10-22T14:48:46.266Z,21.16
2022-10-22T14:51:12.825Z,21.12
2022-10-22T14:53:39.170Z,21.11
2022-10-22T14:56:05.575Z,21.08
2022-10-22T14:58:31.787Z,21.08
2022-10-22T15:00:58.227Z,21.06
2022-10-22T15:03:24.575Z,21.07
2022-10-22T15:05:50.985Z,21.12
2022-10-22T15:08:17.328Z,21.14
2022-10-22T15:10:43.805Z,21.15
2022-10-22T15:13:11.080Z,21.17
2022-10-22T15:15:39.840Z,21.16
2022-10-22T15:18:06.565Z,21.17
2022-10-22T15:20:32.846Z,21.16
2022-10-22T15:22:59.656Z,21.20
2022-10-22T15:25:26.759Z,21.22
2022-10-22T15:27:54.915Z,21.19
2022-10-22T15:30:25.867Z,21.23
2022-10-22T15:32:52.169Z,21.23
2022-10-22T15:35:18.502Z,21.22
2022-10-22T15:37:44.801Z,21.22
2022-10-22T15:40:11.070Z,21.21
2022-10-22T15:42:37.424Z,21.22
2022-10-22T15:45:03.930Z,21.22
2022-10-22T15:47:30.330Z,21.22
2022-10-22T15:49:56.927Z,21.17
2022-10-22T15:52:23.330Z,21.11
2022-10-22T15:54:49.833Z,21.10
2022-10-22T15:57:16.300Z,21.15
2022-10-22T15:59:42.601Z,21.18
2022-10-22T16:02:08.961Z,21.17
2022-10-22T16:04:35.790Z,21.18
2022-10-22T16:07:02.040Z,21.20
2022-10-22T16:09:29.500Z,21.18
2022-10-22T16:11:56.183Z,21.18
2022-10-22T16:14:22.648Z,21.19
2022-10-22T16:16:48.926Z,21.16
2022-10-22T16:19:15.213Z,21.17
2022-10-22T16:21:41.800Z,21.17
2022-10-22T16:24:08.505Z,21.16
2022-10-22T16:26:34.926Z,21.17
2022-10-22T16:29:01.286Z,21.17
2022-10-22T16:31:27.755Z,21.13
2022-10-22T16:33:54.652Z,21.15
2022-10-22T16:36:21.034Z,21.13
2022-10-22T16:38:47.468Z,21.07
2022-10-22T16:41:13.847Z,21.08
2022-10-22T16:43:40.243Z,21.09
2022-10-22T16:46:06.493Z,21.07
2022-10-22T16:48:33.022Z,21.04
2022-10-22T16:50:59.400Z,21.03
2022-10-22T16:53:25.853Z,21.03
2022-10-22T16:55:52.180Z,21.01
2022-10-22T16:58:18.913Z,20.99
2022-10-22T17:00:45.331Z,20.97
2022-10-22T17:03:11.976Z,20.94
2022-10-22T17:05:38.251Z,20.91
2022-10-22T17:08:04.567Z,20.86
2022-10-22T17:10:30.900Z,20.85
2022-10-22T17:12:57.957Z,20.84
2022-10-22T17:15:24.208Z,20.81
2022-10-22T17:17:50.529Z,20.78
2022-10-22T17:20:16.821Z,20.80
2022-10-22T17:22:43.315Z,20.82
2022-10-22T17:25:09.825Z,20.80
2022-10-22T17:27:36.131Z,20.81
2022-10-22T17:30:02.571Z,20.77
2022-10-22T17:32:29.092Z,20.79
2022-10-22T17:34:55.909Z,20.75
2022-10-22T17:37:22.200Z,20.71
2022-10-22T17:39:48.593Z,20.77
2022-10-22T17:42:14.954Z,20.76
2022-10-22T17:44:41.484Z,20.81
2022-10-22T17:47:08.010Z,20.85
2022-10-22T17:49:34.564Z,20.86
2022-10-22T17:54:32.438Z,20.88
2022-10-22T17:56:58.883Z,20.91
2022-10-22T17:59:25.268Z,20.90
2022-10-22T18:01:51.523Z,20.92
2022-10-22T18:04:17.887Z,20.94
2022-10-22T18:06:44.501Z,20.94
2022-10-22T18:09:12.396Z,20.94
2022-10-22T18:11:41.039Z,20.94
2022-10-22T18:14:07.605Z,20.94
2022-10-22T18:16:33.958Z,20.94
2022-10-22T18:19:00.285Z,20.98
2022-10-22T18:21:26.813Z,20.98
2022-10-22T18:23:53.328Z,20.97
2022-10-22T18:26:22.789Z,20.99
2022-10-22T18:28:52.516Z,21.01
2022-10-22T18:31:18.855Z,21.00
2022-10-22T18:33:45.167Z,21.03
2022-10-22T18:36:11.735Z,21.02
2022-10-22T18:38:38.104Z,20.99
2022-10-22T18:41:04.551Z,21.02
2022-10-22T18:43:30.871Z,21.01
2022-10-22T18:45:57.214Z,21.01
2022-10-22T18:48:23.509Z,20.99
2022-10-22T18:50:51.214Z,20.97
2022-10-22T18:53:19.330Z,20.96
2022-10-22T18:55:45.592Z,20.94
2022-10-22T18:58:11.881Z,20.90
2022-10-22T19:00:38.223Z,20.91
2022-10-22T19:03:04.562Z,20.91
2022-10-22T19:05:30.894Z,20.90
2022-10-22T19:07:57.165Z,20.91
2022-10-22T19:10:24.517Z,20.89
2022-10-22T19:12:50.831Z,20.89
2022-10-22T19:15:17.151Z,20.90
2022-10-22T19:17:43.935Z,20.90
2022-10-22T19:20:10.712Z,20.88
2022-10-22T19:22:36.972Z,20.87
2022-10-22T19:25:05.926Z,20.87
2022-10-22T19:27:34.678Z,20.88
2022-10-22T19:30:01.050Z,20.87
2022-10-22T19:32:30.210Z,20.87
2022-10-22T19:34:57.821Z,20.87
2022-10-22T19:37:24.200Z,20.88
2022-10-22T19:39:50.520Z,20.89
2022-10-22T19:42:16.853Z,20.88
2022-10-22T19:44:43.241Z,20.89
2022-10-22T19:47:09.625Z,20.87
2022-10-22T19:49:35.937Z,20.87
2022-10-22T19:52:02.296Z,20.87
2022-10-22T19:54:28.776Z,20.84
2022-10-22T19:56:55.258Z,20.84
2022-10-22T19:59:21.581Z,20.84
2022-10-22T20:01:47.863Z,20.84
2022-10-22T20:04:14.088Z,20.83
2022-10-22T20:06:40.718Z,20.83
2022-10-22T20:09:07.269Z,20.81
2022-10-22T20:11:33.568Z,20.79
2022-10-22T20:14:00.154Z,20.79
2022-10-22T20:16:26.574Z,20.77
2022-10-22T20:18:52.936Z,20.77
2022-10-22T20:21:19.234Z,20.75
2022-10-22T20:23:45.572Z,20.75
2022-10-22T20:26:11.853Z,20.74
2022-10-22T20:28:38.383Z,20.72
2022-10-22T20:31:05.177Z,20.71
2022-10-22T20:33:31.458Z,20.67
2022-10-22T20:35:57.730Z,20.68
2022-10-22T20:38:24.190Z,20.67
2022-10-22T20:40:50.515Z,20.67
2022-10-22T20:43:17.090Z,20.67
2022-10-22T20:45:43.410Z,20.66
2022-10-22T20:48:10.114Z,20.66
2022-10-22T20:50:36.669Z,20.64
2022-10-22T20:53:03.044Z,20.62
2022-10-22T20:55:29.422Z,20.63
2022-10-22T20:57:55.705Z,20.61
2022-10-22T21:00:22.024Z,20.60
2022-10-22T21:05:28.449Z,20.59
2022-10-22T21:07:54.755Z,20.58
2022-10-22T21:10:21.126Z,20.55
2022-10-22T21:15:23.457Z,20.54
2022-10-22T21:17:49.819Z,20.54
2022-10-22T21:20:17.862Z,20.53
2022-10-22T21:22:46.169Z,20.55
2022-10-22T21:25:13.338Z,20.52
2022-10-22T21:27:39.785Z,20.52
2022-10-22T21:30:06.005Z,20.51
2022-10-22T21:32:32.501Z,20.51
2022-10-22T21:34:58.823Z,20.53
2022-10-22T21:37:25.446Z,20.51
2022-10-22T21:39:51.722Z,20.52
2022-10-22T21:42:18.119Z,20.53
2022-10-22T21:44:44.529Z,20.52
2022-10-22T21:47:10.831Z,20.51
2022-10-22T21:49:37.380Z,20.49
2022-10-22T21:52:03.800Z,20.48
2022-10-22T21:54:30.245Z,20.46
2022-10-22T21:56:56.773Z,20.46
2022-10-22T21:59:23.374Z,20.43
2022-10-22T22:01:49.667Z,20.42
2022-10-22T22:04:16.340Z,20.41
2022-10-22T22:06:42.685Z,20.42
2022-10-22T22:09:09.066Z,20.40
2022-10-22T22:11:35.444Z,20.38
2022-10-22T22:14:01.898Z,20.37
2022-10-22T22:16:29.714Z,20.36
2022-10-22T22:18:56.107Z,20.35
2022-10-22T22:21:22.469Z,20.34
2022-10-22T22:23:48.728Z,20.33
2022-10-22T22:26:15.120Z,20.30
2022-10-22T22:28:41.582Z,20.29
2022-10-22T22:31:07.900Z,20.27
2022-10-22T22:33:34.386Z,20.27
2022-10-22T22:36:00.876Z,20.27
2022-10-22T22:38:27.227Z,20.24
2022-10-22T22:40:53.585Z,20.22
2022-10-22T22:43:19.973Z,20.22
2022-10-22T22:45:46.785Z,20.21
2022-10-22T22:48:13.153Z,20.20
2022-10-22T22:50:39.482Z,20.18
2022-10-22T22:53:05.936Z,20.17
2022-10-22T22:55:32.220Z,20.16
2022-10-22T22:57:58.539Z,20.17
2022-10-22T23:00:25.019Z,20.12
2022-10-22T23:02:51.305Z,20.11
2022-10-22T23:05:17.983Z,20.10
2022-10-22T23:07:44.236Z,20.10
2022-10-22T23:10:10.601Z,20.08
2022-10-22T23:12:37.042Z,20.08
2022-10-22T23:15:03.516Z,20.07
2022-10-22T23:17:30.082Z,20.05
2022-10-22T23:19:56.408Z,20.04
2022-10-22T23:22:22.834Z,20.03
2022-10-22T23:24:49.178Z,20.01
2022-10-22T23:27:15.869Z,20.00
2022-10-22T23:29:42.207Z,19.99
2022-10-22T23:32:08.716Z,19.99
2022-10-22T23:34:35.072Z,19.98
2022-10-22T23:37:01.367Z,19.97
2022-10-22T23:39:27.815Z,19.95
2022-10-22T23:41:54.245Z,19.93
2022-10-22T23:44:20.637Z,19.94
2022-10-22T23:46:47.050Z,19.93
2022-10-22T23:49:13.474Z,19.91
2022-10-22T23:51:39.702Z,19.90
2022-10-22T23:54:06.049Z,19.89
2022-10-22T23:56:32.416Z,19.90
2022-10-22T23:58:58.841Z,19.87
